Share

Dunnville, KY

11:33 AM EDT on April 23, 2014 (GMT -0400)
FOX (KKYJAMES5) Elev 951 ft | 37.00 °N, 85.06 °W | Change Station

Current weather conditions updated 3 seconds ago

Clear
Clear
57.7 °F
Feels Like 57.7 °F
N
6.9
Wind Variable Wind from NW
Gusts 12.1 mph
Sunrise 6:55 AM
Sunset 8:22 PM
Moon Waning Crescent

Today is forecast to be Much Cooler than yesterday.

Pressure 30.10 in
Visibility 10.0 miles
Clouds Clear
Dew Point 30 °F
Humidity 34%
Rainfall 0.00 in
Snow Depth Not available.
UV 0.0 out of 16
Pollen 10.10 out of 12
Air Quality Not available.
Flu Activity Sporadic
METAR KSME 231515Z AUTO 35005KT 10SM CLR 12/M02 A3010 RMK AO2

More Conditions Fewer Conditions

Pressure 30.10 in
Visibility 10.0 miles
Clouds Clear
Dew Point 30 °F
Humidity 34%
Rainfall 0.00 in
Snow Depth Not available.
UV 0.0 out of 16
Pollen 10.10 out of 12
Air Quality Not available.
Flu Activity Sporadic
METAR KSME 231515Z AUTO 35005KT 10SM CLR 12/M02 A3010 RMK AO2

More Conditions Fewer Conditions

10-Day Weather Forecast

Almanac

Astronomy

Apr. 23, 2014 Rise Set
Actual Time 6:55 AM EDT 8:22 PM EDT
Civil Twilight 6:27 AM EDT 8:49 PM EDT
Nautical Twilight 5:55 AM EDT 9:22 PM EDT
Astronomical Twilight 5:20 AM EDT 9:57 PM EDT
Moon 3:18 AM EDT 2:37 PM EDT
Length of Visible Light 14h 21m
Length of Day
13h 27m
Tomorrow will be 2m 10s longer.
Waning Crescent, 35% of the Moon is Illuminated
Today
Waning Crescent
Apr 29
New
May 6
First Quarter
May 14
Full
May 21
Last Quarter

Today's Extremes

State Highs State Lows

Community

  • spring flowers
    spring flowers
  • Earth Day Spectrum Ove' Blue
    Earth Day Spectrum Ove' Blue
  • BARN B&W
    BARN B&W
  • April Sunset
    April Sunset
  • Waiting..
    Waiting..

WunderPhotos

Upload Photos

1,704,316 photos uploaded!

Nearby

Snow Depth

Station Depth Elevation
No new snow has been reported.

Coastal Water Temperatures

Place Temperature
No Stations Reporting

Earthquake Activity

City Distance Mag. Time & Date
No recent earthquake activity has been reported nearby.
Minimum magnitude displayed is 2.5.

Nearby Weather Stations

Station Location Temp. Dew Point Humidity Wind Precip. Elev Updated Type
FOX, JAMESTOWN, KY 57.7 °F 30 °F 34% NW  at  6.9 mph 0.00 in / hr 951 ft 10:33 AM CDT Rapid Fire
Balcony Bend, Jamestown, KY 61.0 °F 37 °F 41% NNE  at  1.0 mph 0.00 in / hr 817 ft 10:30 AM CDT Normal
Redman Avenue, Campbellsville, KY 55.1 °F 35 °F 46% North  at  6.0 mph 0.00 in / hr 837 ft 11:33 AM EDT Rapid Fire
Columbia, KY 55.2 °F 34 °F 45% NW  at  3.0 mph 0.00 in / hr 1033 ft 10:33 AM CDT Rapid Fire
Clay Hill Memorial Forest, Campbellsville, KY 53.2 °F 36 °F 52% NNW  at  3.8 mph 0.00 in / hr 955 ft 11:22 AM EDT Normal
Clover Pointe, Somerset, KY 56.3 °F 33 °F 41% WNW  at  5.4 mph 0.00 in / hr 991 ft 11:33 AM EDT Rapid Fire

Show More Stations Show Fewer Stations

What do you think?

We're not finished. Please let us know what you like, what you don't like, and what you are still missing.